createdAt,value
2022-08-07T00:02:40.681Z,102560.28
2022-08-07T00:05:05.834Z,102555.13
2022-08-07T00:07:40.189Z,102560.44
2022-08-07T00:10:27.154Z,102562.13
2022-08-07T00:13:00.116Z,102563.16
2022-08-07T00:15:38.308Z,102551.97
2022-08-07T00:18:18.808Z,102555.81
2022-08-07T00:20:49.566Z,102557.63
2022-08-07T00:23:17.928Z,102552.94
2022-08-07T00:25:52.420Z,102552.84
2022-08-07T00:28:33.426Z,102546.78
2022-08-07T00:31:04.397Z,102547.91
2022-08-07T00:33:36.781Z,102543.06
2022-08-07T00:36:08.289Z,102535.22
2022-08-07T00:38:39.126Z,102538.44
2022-08-07T00:41:09.931Z,102541.09
2022-08-07T00:44:00.351Z,102538.72
2022-08-07T00:46:33.954Z,102536.06
2022-08-07T00:49:03.791Z,102530.75
2022-08-07T00:51:57.288Z,102533.41
2022-08-07T00:54:20.687Z,102530.16
2022-08-07T00:56:51.003Z,102529.84
2022-08-07T00:59:20.041Z,102530.94
2022-08-07T01:02:02.778Z,102520.34
2022-08-07T01:04:42.929Z,102524.25
2022-08-07T01:07:12.047Z,102521.69
2022-08-07T01:10:04.755Z,102518.22
2022-08-07T01:12:31.123Z,102510.78
2022-08-07T01:15:00.992Z,102517.50
2022-08-07T01:17:30.650Z,102516.06
2022-08-07T01:20:07.903Z,102520.44
2022-08-07T01:22:46.857Z,102519.81
2022-08-07T01:25:53.669Z,102515.34
2022-08-07T01:28:15.946Z,102508.13
2022-08-07T01:30:45.740Z,102513.41
2022-08-07T01:33:15.213Z,102518.28
2022-08-07T01:35:54.483Z,102511.88
2022-08-07T01:38:25.833Z,102508.47
2022-08-07T01:41:00.660Z,102505.66
2022-08-07T01:43:34.665Z,102509.63
2022-08-07T01:46:08.372Z,102502.81
2022-08-07T01:48:42.297Z,102507.41
2022-08-07T01:52:02.570Z,102502.34
2022-08-07T01:54:33.402Z,102502.66
2022-08-07T01:57:08.282Z,102502.44
2022-08-07T01:59:44.011Z,102503.56
2022-08-07T02:02:32.708Z,102499.19
2022-08-07T02:05:15.839Z,102498.25
2022-08-07T02:07:51.192Z,102504.56
2022-08-07T02:10:26.360Z,102501.16
2022-08-07T02:12:57.620Z,102501.47
2022-08-07T02:15:30.532Z,102498.16
2022-08-07T02:18:03.916Z,102501.13
2022-08-07T02:20:34.430Z,102499.16
2022-08-07T02:23:06.111Z,102487.72
2022-08-07T02:26:30.460Z,102493.72
2022-08-07T02:28:29.758Z,102490.53
2022-08-07T02:31:00.056Z,102492.41
2022-08-07T02:34:03.494Z,102487.81
2022-08-07T02:36:33.905Z,102489.31
2022-08-07T02:39:16.082Z,102487.00
2022-08-07T02:41:54.189Z,102486.91
2022-08-07T02:44:27.481Z,102481.63
2022-08-07T02:47:01.108Z,102485.91
2022-08-07T02:49:55.881Z,102487.25
2022-08-07T02:52:31.153Z,102491.19
2022-08-07T02:55:04.541Z,102491.44
2022-08-07T02:57:47.451Z,102491.53
2022-08-07T03:00:18.209Z,102487.06
2022-08-07T03:02:54.458Z,102486.28
2022-08-07T03:05:25.336Z,102481.78
2022-08-07T03:08:07.971Z,102482.97
2022-08-07T03:10:40.987Z,102480.53
2022-08-07T03:13:19.927Z,102486.84
2022-08-07T03:15:56.516Z,102483.44
2022-08-07T03:18:34.584Z,102484.28
2022-08-07T03:21:08.726Z,102480.34
2022-08-07T03:24:18.171Z,102480.41
2022-08-07T03:26:33.149Z,102496.44
2022-08-07T03:29:11.125Z,102486.72
2022-08-07T03:31:46.611Z,102484.06
2022-08-07T03:34:22.179Z,102486.97
2022-08-07T03:36:53.179Z,102481.56
2022-08-07T03:39:59.719Z,102482.34
2022-08-07T03:42:13.247Z,102478.13
2022-08-07T03:44:43.143Z,102482.78
2022-08-07T03:47:25.643Z,102475.25
2022-08-07T03:49:57.752Z,102485.97
2022-08-07T03:52:28.894Z,102482.56
2022-08-07T03:55:07.047Z,102488.69
2022-08-07T03:58:33.726Z,102486.84
2022-08-07T04:00:30.403Z,102477.63
2022-08-07T04:03:04.395Z,102483.78
2022-08-07T04:05:40.245Z,102486.97
2022-08-07T04:08:12.425Z,102485.88
2022-08-07T04:10:54.726Z,102482.44
2022-08-07T04:14:09.279Z,102490.16
2022-08-07T04:16:30.839Z,102483.44
2022-08-07T04:19:01.840Z,102484.00
2022-08-07T04:21:33.518Z,102487.88
2022-08-07T04:24:05.900Z,102491.53
2022-08-07T04:26:36.070Z,102496.97
2022-08-07T04:29:04.154Z,102497.81
2022-08-07T04:31:39.225Z,102495.91
2022-08-07T04:34:32.919Z,102509.84
2022-08-07T04:37:08.045Z,102510.09
2022-08-07T04:39:47.985Z,102509.38
2022-08-07T04:42:18.307Z,102508.09
2022-08-07T04:44:54.798Z,102509.09
2022-08-07T04:47:58.822Z,102506.22
2022-08-07T04:50:35.854Z,102514.13
2022-08-07T04:53:27.756Z,102507.84
2022-08-07T04:58:09.812Z,102509.94
2022-08-07T05:00:07.922Z,102514.44
2022-08-07T05:02:01.422Z,102514.28
2022-08-07T05:04:43.880Z,102519.56
2022-08-07T05:07:21.133Z,102522.22
2022-08-07T05:09:59.202Z,102514.28
2022-08-07T05:12:36.194Z,102516.84
2022-08-07T05:15:23.039Z,102521.78
2022-08-07T05:17:57.673Z,102520.13
2022-08-07T05:20:32.158Z,102525.03
2022-08-07T05:23:05.408Z,102530.47
2022-08-07T05:26:11.671Z,102520.69
2022-08-07T05:28:36.444Z,102524.09
2022-08-07T05:31:14.655Z,102527.47
2022-08-07T05:34:01.299Z,102522.94
2022-08-07T05:36:36.097Z,102528.66
2022-08-07T05:40:16.880Z,102524.84
2022-08-07T05:42:01.565Z,102524.38
2022-08-07T05:44:36.443Z,102527.28
2022-08-07T05:47:18.819Z,102519.00
2022-08-07T05:49:50.459Z,102527.28
2022-08-07T05:52:20.744Z,102524.06
2022-08-07T05:55:10.518Z,102522.81
2022-08-07T05:57:42.051Z,102531.19
2022-08-07T06:00:15.954Z,102535.13
2022-08-07T06:02:48.900Z,102529.34
2022-08-07T06:05:20.398Z,102526.13
2022-08-07T06:08:13.361Z,102531.72
2022-08-07T06:10:51.365Z,102535.53
2022-08-07T06:14:10.538Z,102536.66
2022-08-07T06:16:13.525Z,102532.59
2022-08-07T06:18:43.162Z,102527.66
2022-08-07T06:22:16.585Z,102534.13
2022-08-07T06:24:37.844Z,102535.31
2022-08-07T06:26:58.783Z,102538.09
2022-08-07T06:29:33.967Z,102544.41
2022-08-07T06:32:02.150Z,102542.84
2022-08-07T06:34:32.633Z,102540.13
2022-08-07T06:37:02.644Z,102533.34
2022-08-07T06:40:16.702Z,102534.13
2022-08-07T06:42:33.003Z,102533.97
2022-08-07T06:45:04.740Z,102527.13
2022-08-07T06:47:48.171Z,102530.72
2022-08-07T06:50:21.722Z,102529.78
2022-08-07T06:52:55.816Z,102522.81
2022-08-07T06:55:53.769Z,102521.75
2022-08-07T06:58:17.972Z,102518.19
2022-08-07T07:00:53.057Z,102508.28
2022-08-07T07:03:39.915Z,102508.13
2022-08-07T07:06:11.206Z,102514.03
2022-08-07T07:08:46.601Z,102508.72
2022-08-07T07:12:09.167Z,102509.38
2022-08-07T07:14:08.340Z,102509.91
2022-08-07T07:16:49.831Z,102507.47
2022-08-07T07:19:56.404Z,102503.63
2022-08-07T07:22:36.364Z,102512.94
2022-08-07T07:25:02.746Z,102509.91
2022-08-07T07:27:55.516Z,102502.47
2022-08-07T07:30:37.908Z,102511.91
2022-08-07T07:33:09.085Z,102502.47
2022-08-07T07:35:44.025Z,102502.88
2022-08-07T07:38:24.683Z,102510.91
2022-08-07T07:40:58.845Z,102502.19
2022-08-07T07:43:47.670Z,102508.28
2022-08-07T07:46:38.221Z,102513.91
2022-08-07T07:50:29.800Z,102521.53
2022-08-07T07:52:07.915Z,102516.69
2022-08-07T07:54:38.823Z,102513.47
2022-08-07T07:57:14.305Z,102510.66
2022-08-07T07:59:52.620Z,102507.31
2022-08-07T08:02:33.992Z,102505.94
2022-08-07T08:05:05.322Z,102506.28
2022-08-07T08:07:42.477Z,102506.03
2022-08-07T08:10:35.614Z,102503.31
2022-08-07T08:13:10.353Z,102507.63
2022-08-07T08:15:59.159Z,102496.16
2022-08-07T08:18:30.429Z,102497.22
2022-08-07T08:21:01.442Z,102491.63
2022-08-07T08:23:50.883Z,102490.53
2022-08-07T08:26:38.194Z,102493.06
2022-08-07T08:29:08.306Z,102488.41
2022-08-07T08:31:59.038Z,102480.34
2022-08-07T08:34:31.401Z,102478.66
2022-08-07T08:37:01.049Z,102474.56
2022-08-07T08:39:39.800Z,102472.44
2022-08-07T08:42:26.906Z,102468.69
2022-08-07T08:45:04.230Z,102472.19
2022-08-07T08:50:34.797Z,102475.66
2022-08-07T08:53:19.244Z,102474.47
2022-08-07T08:55:54.276Z,102470.56
2022-08-07T08:58:35.175Z,102470.16
2022-08-07T09:01:16.138Z,102464.63
2022-08-07T09:03:57.962Z,102462.94
2022-08-07T09:06:42.710Z,102466.84
2022-08-07T09:09:33.210Z,102462.38
2022-08-07T09:12:30.444Z,102471.69
2022-08-07T09:16:22.759Z,102465.41
2022-08-07T09:18:22.792Z,102468.44
2022-08-07T09:21:05.016Z,102465.16
2022-08-07T09:24:32.306Z,102455.72
2022-08-07T09:26:47.823Z,102462.00
2022-08-07T09:30:06.492Z,102454.75
2022-08-07T09:32:33.185Z,102458.56
2022-08-07T09:36:05.187Z,102458.06
2022-08-07T09:38:12.047Z,102457.78
2022-08-07T09:40:55.380Z,102455.28
2022-08-07T09:44:03.033Z,102445.47
2022-08-07T09:47:52.418Z,102445.78
2022-08-07T09:50:01.910Z,102445.00
2022-08-07T09:52:35.293Z,102434.16
2022-08-07T09:55:28.860Z,102433.16
2022-08-07T09:58:42.459Z,102426.78
2022-08-07T10:01:53.209Z,102421.03
2022-08-07T10:04:38.328Z,102425.78
2022-08-07T10:07:31.694Z,102416.25
2022-08-07T10:10:53.764Z,102406.09
2022-08-07T10:14:01.027Z,102404.44
2022-08-07T10:17:14.489Z,102403.91
2022-08-07T10:19:58.292Z,102405.88
2022-08-07T10:23:01.644Z,102399.53
2022-08-07T10:25:45.789Z,102394.88
2022-08-07T10:28:51.342Z,102394.31
2022-08-07T10:31:45.272Z,102396.34
2022-08-07T10:34:33.449Z,102398.00
2022-08-07T10:37:15.278Z,102382.16
2022-08-07T10:40:05.583Z,102388.34
2022-08-07T10:42:43.995Z,102395.63
2022-08-07T10:45:44.754Z,102389.19
2022-08-07T10:48:34.605Z,102386.31
2022-08-07T10:51:16.382Z,102384.06
2022-08-07T10:54:16.270Z,102381.53
2022-08-07T10:56:58.314Z,102385.97
2022-08-07T10:59:47.312Z,102385.78
2022-08-07T11:02:27.588Z,102379.19
2022-08-07T11:05:12.667Z,102375.00
2022-08-07T11:07:58.441Z,102370.59
2022-08-07T11:10:38.328Z,102356.28
2022-08-07T11:13:42.391Z,102360.13
2022-08-07T11:16:09.524Z,102350.81
2022-08-07T11:18:43.906Z,102349.84
2022-08-07T11:21:31.926Z,102342.88
2022-08-07T11:24:08.459Z,102334.59
2022-08-07T11:26:48.096Z,102334.59
2022-08-07T11:29:42.884Z,102330.19
2022-08-07T11:32:25.429Z,102332.44
2022-08-07T11:34:58.496Z,102335.66
2022-08-07T11:38:08.730Z,102326.19
2022-08-07T11:40:37.190Z,102319.19
2022-08-07T11:43:15.622Z,102311.75
2022-08-07T11:46:06.501Z,102314.63
2022-08-07T11:49:50.555Z,102315.28
2022-08-07T11:52:03.159Z,102311.19
2022-08-07T11:54:57.474Z,102308.97
2022-08-07T11:58:00.614Z,102308.72
2022-08-07T12:00:32.467Z,102310.34
2022-08-07T12:03:42.313Z,102309.50
2022-08-07T12:06:51.579Z,102296.78
2022-08-07T12:09:32.637Z,102299.47
2022-08-07T12:12:09.465Z,102299.28
2022-08-07T12:14:52.707Z,102298.66
2022-08-07T12:17:33.704Z,102300.13
2022-08-07T12:20:18.612Z,102302.84
2022-08-07T12:23:14.367Z,102300.47
2022-08-07T12:26:06.251Z,102300.66
2022-08-07T12:28:57.954Z,102298.03
2022-08-07T12:31:53.189Z,102294.63
2022-08-07T12:34:22.748Z,102287.72
2022-08-07T12:36:55.755Z,102289.25
2022-08-07T12:39:42.874Z,102294.84
2022-08-07T12:42:14.123Z,102289.84
2022-08-07T12:44:47.614Z,102295.03
2022-08-07T12:47:31.063Z,102277.84
2022-08-07T12:50:38.182Z,102286.66
2022-08-07T12:53:05.248Z,102287.53
2022-08-07T12:56:03.128Z,102273.97
2022-08-07T12:58:39.318Z,102276.66
2022-08-07T13:01:16.837Z,102267.84
2022-08-07T13:04:31.637Z,102263.28
2022-08-07T13:08:14.121Z,102271.81
2022-08-07T13:10:39.497Z,102258.34
2022-08-07T13:13:47.823Z,102258.34
2022-08-07T13:16:30.722Z,102265.66
2022-08-07T13:19:11.546Z,102262.31
2022-08-07T13:22:04.004Z,102259.47
2022-08-07T13:24:52.517Z,102247.69
2022-08-07T13:28:05.755Z,102244.78
2022-08-07T13:30:19.448Z,102252.97
2022-08-07T13:34:31.224Z,102249.25
2022-08-07T13:36:05.524Z,102247.56
2022-08-07T13:38:41.959Z,102241.09
2022-08-07T13:41:22.271Z,102243.16
2022-08-07T13:43:56.461Z,102237.13
2022-08-07T13:46:33.492Z,102238.31
2022-08-07T13:49:19.724Z,102234.34
2022-08-07T13:52:22.757Z,102232.00
2022-08-07T13:54:49.079Z,102236.19
2022-08-07T13:57:23.879Z,102232.41
2022-08-07T13:59:55.877Z,102231.22
2022-08-07T14:02:33.284Z,102221.63
2022-08-07T14:05:11.119Z,102229.03
2022-08-07T14:08:00.960Z,102222.00
2022-08-07T14:10:42.315Z,102223.91
2022-08-07T14:13:16.780Z,102225.59
2022-08-07T14:15:53.074Z,102224.34
2022-08-07T14:18:33.213Z,102218.91
2022-08-07T14:21:11.871Z,102217.66
2022-08-07T14:24:01.218Z,102224.06
2022-08-07T14:26:40.507Z,102213.72
2022-08-07T14:30:06.630Z,102215.41
2022-08-07T14:32:04.125Z,102209.13
2022-08-07T14:34:46.395Z,102207.63
2022-08-07T14:37:16.319Z,102207.53
2022-08-07T14:40:17.256Z,102210.19
2022-08-07T14:43:01.228Z,102207.00
2022-08-07T14:45:46.642Z,102210.28
2022-08-07T14:48:19.891Z,102207.75
2022-08-07T14:50:53.227Z,102205.50
2022-08-07T14:54:10.003Z,102198.41
2022-08-07T14:56:14.008Z,102207.97
2022-08-07T14:58:48.056Z,102202.53
2022-08-07T15:01:23.349Z,102199.38
2022-08-07T15:03:53.396Z,102201.28
2022-08-07T15:06:28.796Z,102205.56
2022-08-07T15:09:58.511Z,102204.31
2022-08-07T15:17:55.151Z,102195.59
2022-08-07T15:20:32.978Z,102192.38
2022-08-07T15:23:16.984Z,102198.53
2022-08-07T15:25:54.929Z,102196.50
2022-08-07T15:28:34.317Z,102208.56
2022-08-07T15:31:12.161Z,102194.94
2022-08-07T15:33:43.032Z,102192.66
2022-08-07T15:36:12.849Z,102203.63
2022-08-07T15:38:51.661Z,102195.28
2022-08-07T15:42:46.003Z,102190.69
2022-08-07T15:44:24.047Z,102179.31
2022-08-07T15:47:03.295Z,102178.28
2022-08-07T15:50:05.003Z,102178.88
2022-08-07T15:52:31.769Z,102181.38
2022-08-07T15:55:08.893Z,102177.84
2022-08-07T15:57:48.704Z,102178.38
2022-08-07T16:00:31.733Z,102188.06
2022-08-07T16:03:05.596Z,102188.28
2022-08-07T16:05:36.114Z,102194.66
2022-08-07T16:08:31.348Z,102183.56
2022-08-07T16:11:04.026Z,102182.25
2022-08-07T16:14:09.043Z,102180.28
2022-08-07T16:16:57.039Z,102182.13
2022-08-07T16:19:59.003Z,102176.88
2022-08-07T16:22:55.414Z,102178.47
2022-08-07T16:25:55.006Z,102176.59
2022-08-07T16:30:07.783Z,102179.34
2022-08-07T16:31:50.859Z,102181.38
2022-08-07T16:34:33.881Z,102170.03
2022-08-07T16:38:06.538Z,102173.75
2022-08-07T16:41:04.325Z,102180.66
2022-08-07T16:44:47.439Z,102175.47
2022-08-07T16:47:45.408Z,102179.00
2022-08-07T16:50:39.046Z,102180.38
2022-08-07T16:54:01.444Z,102172.88
2022-08-07T16:56:37.570Z,102173.25
2022-08-07T16:59:17.348Z,102179.56
2022-08-07T17:02:03.118Z,102182.59
2022-08-07T17:04:50.866Z,102181.44
2022-08-07T17:07:51.975Z,102182.63
2022-08-07T17:10:32.283Z,102183.28
2022-08-07T17:13:41.312Z,102180.25
2022-08-07T17:16:17.471Z,102185.97
2022-08-07T17:19:00.627Z,102184.44
2022-08-07T17:21:51.208Z,102182.09
2022-08-07T17:24:50.605Z,102181.00
2022-08-07T17:27:32.817Z,102182.69
2022-08-07T17:30:15.971Z,102180.91
2022-08-07T17:34:08.248Z,102183.09
2022-08-07T17:36:01.855Z,102187.44
2022-08-07T17:38:35.444Z,102187.69
2022-08-07T17:42:00.848Z,102190.13
2022-08-07T17:44:06.540Z,102182.22
2022-08-07T17:46:46.703Z,102192.09
2022-08-07T17:49:24.879Z,102191.84
2022-08-07T17:52:06.190Z,102193.19
2022-08-07T17:54:54.548Z,102195.50
2022-08-07T17:57:56.711Z,102188.41
2022-08-07T18:00:33.426Z,102186.25
2022-08-07T18:03:19.447Z,102200.47
2022-08-07T18:06:02.233Z,102204.09
2022-08-07T18:09:01.146Z,102201.06
2022-08-07T18:12:16.404Z,102209.72
2022-08-07T18:14:28.830Z,102206.09
2022-08-07T18:17:00.150Z,102214.59
2022-08-07T18:21:11.605Z,102205.78
2022-08-07T18:22:36.536Z,102219.66
2022-08-07T18:25:19.393Z,102215.25
2022-08-07T18:28:21.534Z,102226.88
2022-08-07T18:31:05.380Z,102219.94
2022-08-07T18:34:40.873Z,102218.88
2022-08-07T18:38:55.628Z,102227.63
2022-08-07T18:40:42.701Z,102220.00
2022-08-07T18:43:14.942Z,102223.56
2022-08-07T18:46:25.205Z,102221.28
2022-08-07T18:50:05.101Z,102223.09
2022-08-07T18:52:34.936Z,102225.94
2022-08-07T18:54:41.083Z,102221.91
2022-08-07T18:57:29.765Z,102225.16
2022-08-07T19:00:34.076Z,102230.81
2022-08-07T19:03:03.999Z,102239.63
2022-08-07T19:06:04.333Z,102241.19
2022-08-07T19:08:46.502Z,102244.44
2022-08-07T19:11:35.673Z,102243.38
2022-08-07T19:14:19.847Z,102236.56
2022-08-07T19:17:05.429Z,102241.94
2022-08-07T19:19:53.140Z,102250.84
2022-08-07T19:22:31.409Z,102252.81
2022-08-07T19:25:05.642Z,102253.63
2022-08-07T19:28:56.833Z,102258.94
2022-08-07T19:31:03.464Z,102261.16
2022-08-07T19:33:33.571Z,102265.56
2022-08-07T19:36:08.858Z,102274.81
2022-08-07T19:38:53.365Z,102271.25
2022-08-07T19:41:44.465Z,102275.31
2022-08-07T19:44:21.374Z,102276.72
2022-08-07T19:46:57.949Z,102269.94
2022-08-07T19:49:57.074Z,102292.94
2022-08-07T19:52:22.632Z,102283.91
2022-08-07T19:54:55.756Z,102289.88
2022-08-07T19:57:59.984Z,102292.22
2022-08-07T20:00:28.740Z,102292.47
2022-08-07T20:03:35.114Z,102291.81
2022-08-07T20:06:01.957Z,102291.56
2022-08-07T20:08:32.705Z,102296.28
2022-08-07T20:11:10.217Z,102294.97
2022-08-07T20:13:44.480Z,102294.91
2022-08-07T20:16:34.874Z,102298.00
2022-08-07T20:19:10.231Z,102299.03
2022-08-07T20:21:41.839Z,102297.69
2022-08-07T20:24:20.437Z,102302.06
2022-08-07T20:26:52.238Z,102298.28
2022-08-07T20:29:48.907Z,102303.19
2022-08-07T20:32:22.348Z,102296.16
2022-08-07T20:34:58.009Z,102297.47
2022-08-07T20:37:34.090Z,102297.38
2022-08-07T20:40:33.087Z,102304.41
2022-08-07T20:42:57.971Z,102298.84
2022-08-07T20:45:33.322Z,102305.88
2022-08-07T20:48:28.606Z,102304.66
2022-08-07T20:51:01.308Z,102302.00
2022-08-07T20:54:02.778Z,102298.13
2022-08-07T20:56:26.117Z,102296.41
2022-08-07T20:58:58.700Z,102302.00
2022-08-07T21:01:29.540Z,102309.34
2022-08-07T21:04:22.100Z,102311.63
2022-08-07T21:06:57.320Z,102318.63
2022-08-07T21:09:51.830Z,102314.63
2022-08-07T21:12:28.716Z,102315.44
2022-08-07T21:15:00.848Z,102312.44
2022-08-07T21:18:01.849Z,102316.19
2022-08-07T21:20:26.571Z,102315.16
2022-08-07T21:23:07.344Z,102323.03
2022-08-07T21:25:50.907Z,102315.75
2022-08-07T21:28:49.799Z,102318.16
2022-08-07T21:31:49.916Z,102325.16
2022-08-07T21:34:31.853Z,102318.88
2022-08-07T21:37:12.677Z,102324.75
2022-08-07T21:39:56.411Z,102322.34
2022-08-07T21:42:42.721Z,102316.97
2022-08-07T21:46:10.863Z,102322.84
2022-08-07T21:48:28.787Z,102326.59
2022-08-07T21:51:19.322Z,102326.19
2022-08-07T21:53:54.553Z,102315.97
2022-08-07T21:56:40.157Z,102324.19
2022-08-07T21:59:30.419Z,102323.47
2022-08-07T22:02:13.205Z,102327.22
2022-08-07T22:04:52.554Z,102327.31
2022-08-07T22:07:31.408Z,102329.97
2022-08-07T22:10:07.208Z,102338.34
2022-08-07T22:12:44.164Z,102334.56
2022-08-07T22:16:43.982Z,102335.97
2022-08-07T22:18:08.454Z,102335.53
2022-08-07T22:20:45.649Z,102332.31
2022-08-07T22:23:21.686Z,102333.41
2022-08-07T22:26:00.502Z,102339.16
2022-08-07T22:28:35.105Z,102339.25
2022-08-07T22:31:11.170Z,102341.16
2022-08-07T22:33:56.622Z,102340.75
2022-08-07T22:36:38.540Z,102349.16
2022-08-07T22:39:18.651Z,102350.13
2022-08-07T22:42:18.902Z,102346.81
2022-08-07T22:44:58.785Z,102353.75
2022-08-07T22:48:01.068Z,102356.09
2022-08-07T22:50:46.712Z,102355.63
2022-08-07T22:54:08.013Z,102363.13
2022-08-07T22:56:35.011Z,102359.81
2022-08-07T22:59:41.505Z,102365.75
2022-08-07T23:02:31.715Z,102369.91
2022-08-07T23:06:09.433Z,102372.34
2022-08-07T23:08:46.289Z,102377.34
2022-08-07T23:11:41.287Z,102370.88
2022-08-07T23:14:31.320Z,102363.97
2022-08-07T23:17:37.566Z,102368.38
2022-08-07T23:20:51.518Z,102378.78
2022-08-07T23:24:06.120Z,102379.81
2022-08-07T23:26:23.391Z,102377.78
2022-08-07T23:29:43.708Z,102375.44
2022-08-07T23:34:19.718Z,102373.63
2022-08-07T23:35:23.635Z,102375.22
2022-08-07T23:38:19.335Z,102372.50
2022-08-07T23:41:17.530Z,102380.81
2022-08-07T23:44:02.111Z,102379.53
2022-08-07T23:47:01.203Z,102380.59
2022-08-07T23:50:00.166Z,102376.31
2022-08-07T23:53:11.792Z,102378.59
2022-08-07T23:55:52.071Z,102371.34
2022-08-07T23:58:27.925Z,102370.41
